Terminal Aerodrome Forecast
Issued by NWS

Home | Current Version | Previous Version | Text Only | Print | Product List | Glossary On
Versions: 1 2 3 4 5 6 7 8 9 10 11 12 13 14 15 16 17 18 19 20 21 22 23
000
FTUS41 KRLX 211100
TAFCKB
TAF
KCKB 211131Z 2112/2212 20004KT P6SM BKN060
     FM211500 22007KT P6SM VCTS BKN035CB
     FM211700 24009G18KT 5SM TSRA BR BKN025CB
     FM212200 24010G20KT P6SM VCTS BKN040CB
     FM220000 29005KT P6SM VCTS BKN040CB
     FM220200 30005KT P6SM BKN040
     FM220700 29005KT P6SM BKN025
     FM220800 31005KT 6SM BR BKN025
     FM221000 33004KT 5SM BR BKN015=

USA.gov is the U.S. government's official web portal to all federal, state and local government web resources and services.